createdAt,value
2017-12-31T00:01:32.100Z,97.85
2017-12-31T00:04:02.906Z,97.85
2017-12-31T00:06:33.748Z,97.80
2017-12-31T00:09:04.550Z,97.78
2017-12-31T00:11:35.358Z,97.75
2017-12-31T00:14:06.179Z,97.79
2017-12-31T00:16:36.937Z,97.80
2017-12-31T00:19:07.747Z,97.75
2017-12-31T00:21:38.545Z,97.55
2017-12-31T00:24:09.362Z,97.35
2017-12-31T00:26:40.155Z,97.17
2017-12-31T00:29:10.928Z,97.13
2017-12-31T00:31:41.762Z,97.17
2017-12-31T00:34:12.546Z,97.53
2017-12-31T00:36:43.330Z,97.80
2017-12-31T00:39:14.109Z,97.87
2017-12-31T00:41:44.903Z,97.89
2017-12-31T00:44:15.715Z,98.03
2017-12-31T00:46:46.526Z,98.02
2017-12-31T00:49:17.355Z,97.96
2017-12-31T00:51:48.199Z,98.00
2017-12-31T00:54:19.001Z,97.94
2017-12-31T00:56:49.812Z,98.01
2017-12-31T00:59:20.623Z,98.02
2017-12-31T01:01:51.398Z,98.03
2017-12-31T01:04:22.173Z,97.88
2017-12-31T01:06:52.936Z,97.94
2017-12-31T01:09:23.705Z,97.99
2017-12-31T01:11:54.481Z,98.02
2017-12-31T01:14:32.247Z,97.60
2017-12-31T01:17:02.999Z,96.94
2017-12-31T01:19:33.759Z,97.06
2017-12-31T01:22:04.504Z,97.02
2017-12-31T01:24:35.273Z,97.19
2017-12-31T01:27:06.027Z,97.25
2017-12-31T01:29:36.793Z,97.38
2017-12-31T01:32:07.549Z,97.43
2017-12-31T01:34:45.373Z,97.30
2017-12-31T01:37:16.115Z,97.38
2017-12-31T01:39:53.808Z,97.37
2017-12-31T01:42:24.596Z,97.46
2017-12-31T01:44:55.352Z,97.32
2017-12-31T01:47:26.089Z,96.92
2017-12-31T01:50:03.724Z,96.87
2017-12-31T01:52:34.471Z,97.19
2017-12-31T01:55:05.248Z,97.50
2017-12-31T01:57:35.992Z,97.76
2017-12-31T02:00:06.760Z,97.70
2017-12-31T02:02:37.505Z,97.67
2017-12-31T02:05:08.264Z,97.67
2017-12-31T02:07:38.999Z,97.94
2017-12-31T02:10:09.756Z,98.00
2017-12-31T02:12:40.496Z,97.98
2017-12-31T02:15:11.263Z,97.88
2017-12-31T02:17:42.005Z,97.69
2017-12-31T02:20:12.759Z,97.46
2017-12-31T02:22:43.501Z,97.19
2017-12-31T02:25:14.248Z,97.07
2017-12-31T02:27:44.993Z,97.27
2017-12-31T02:30:15.770Z,97.18
2017-12-31T02:32:46.505Z,96.86
2017-12-31T02:35:17.255Z,97.04
2017-12-31T02:37:47.984Z,96.92
2017-12-31T02:40:18.752Z,97.65
2017-12-31T02:42:49.508Z,98.69
2017-12-31T02:45:20.253Z,99.96
2017-12-31T02:47:50.992Z,100.00
2017-12-31T02:50:21.755Z,100.00
2017-12-31T02:52:52.493Z,100.00
2017-12-31T02:55:23.257Z,99.85
2017-12-31T02:57:53.995Z,99.52
2017-12-31T03:00:24.760Z,98.79
2017-12-31T03:02:55.507Z,98.90
2017-12-31T03:05:26.252Z,98.68
2017-12-31T03:07:57.000Z,98.50
2017-12-31T03:10:27.765Z,98.37
2017-12-31T03:12:58.509Z,97.96
2017-12-31T03:15:29.254Z,97.74
2017-12-31T03:17:59.990Z,97.18
2017-12-31T03:20:30.747Z,96.72
2017-12-31T03:23:01.483Z,95.86
2017-12-31T03:25:32.288Z,95.98
2017-12-31T03:28:03.046Z,96.20
2017-12-31T03:30:33.828Z,95.88
2017-12-31T03:33:04.568Z,95.83
2017-12-31T03:35:35.328Z,95.97
2017-12-31T03:38:06.067Z,96.41
2017-12-31T03:40:36.836Z,96.45
2017-12-31T03:43:07.572Z,96.29
2017-12-31T03:45:38.352Z,96.46
2017-12-31T03:48:09.091Z,95.94
2017-12-31T03:50:39.892Z,95.90
2017-12-31T03:53:10.704Z,95.86
2017-12-31T03:55:41.460Z,96.14
2017-12-31T03:58:12.206Z,95.53
2017-12-31T04:00:42.968Z,94.80
2017-12-31T04:03:13.697Z,94.72
2017-12-31T04:05:44.455Z,94.77
2017-12-31T04:08:15.200Z,94.48
2017-12-31T04:10:45.965Z,93.74
2017-12-31T04:13:16.704Z,93.94
2017-12-31T04:15:47.465Z,93.92
2017-12-31T04:18:18.195Z,93.96
2017-12-31T04:20:48.956Z,93.72
2017-12-31T04:23:19.696Z,93.69
2017-12-31T04:25:50.461Z,93.77
2017-12-31T04:28:21.203Z,94.06
2017-12-31T04:30:51.959Z,93.78
2017-12-31T04:33:22.693Z,94.03
2017-12-31T04:35:53.461Z,93.50
2017-12-31T04:38:24.187Z,93.42
2017-12-31T04:40:54.964Z,92.90
2017-12-31T04:43:25.703Z,93.18
2017-12-31T04:45:56.480Z,92.97
2017-12-31T04:48:27.235Z,92.94
2017-12-31T04:50:57.997Z,92.92
2017-12-31T04:53:28.743Z,92.88
2017-12-31T04:55:59.520Z,93.10
2017-12-31T04:58:30.288Z,92.59
2017-12-31T05:01:01.076Z,92.45
2017-12-31T05:03:31.820Z,92.41
2017-12-31T05:06:02.609Z,92.00
2017-12-31T05:08:33.360Z,92.16
2017-12-31T05:11:04.139Z,92.12
2017-12-31T05:13:34.901Z,91.48
2017-12-31T05:16:05.661Z,91.66
2017-12-31T05:18:36.423Z,91.78
2017-12-31T05:21:07.212Z,91.31
2017-12-31T05:23:38.072Z,91.38
2017-12-31T05:26:08.840Z,90.78
2017-12-31T05:28:39.595Z,90.42
2017-12-31T05:31:10.364Z,90.39
2017-12-31T05:33:41.109Z,90.56
2017-12-31T05:36:11.888Z,89.91
2017-12-31T05:38:42.644Z,90.04
2017-12-31T05:41:13.396Z,89.52
2017-12-31T05:43:44.148Z,89.67
2017-12-31T05:46:14.912Z,89.81
2017-12-31T05:48:45.647Z,90.34
2017-12-31T05:51:16.417Z,90.34
2017-12-31T05:53:47.153Z,90.56
2017-12-31T05:56:17.920Z,90.15
2017-12-31T05:58:48.653Z,90.47
2017-12-31T06:01:19.428Z,90.33
2017-12-31T06:03:50.156Z,90.51
2017-12-31T06:06:20.947Z,90.56
2017-12-31T06:08:51.696Z,90.33
2017-12-31T06:11:22.465Z,90.28
2017-12-31T06:13:53.200Z,90.44
2017-12-31T06:16:23.964Z,90.01
2017-12-31T06:18:54.721Z,90.13
2017-12-31T06:21:25.490Z,89.94
2017-12-31T06:23:56.228Z,89.44
2017-12-31T06:26:26.992Z,89.81
2017-12-31T06:28:57.744Z,89.43
2017-12-31T06:31:28.541Z,89.63
2017-12-31T06:33:59.285Z,89.47
2017-12-31T06:36:30.056Z,89.26
2017-12-31T06:39:00.800Z,89.34
2017-12-31T06:41:31.576Z,89.35
2017-12-31T06:44:02.317Z,89.29
2017-12-31T06:46:33.107Z,89.48
2017-12-31T06:49:03.861Z,89.22
2017-12-31T06:51:34.616Z,89.43
2017-12-31T06:54:05.357Z,89.72
2017-12-31T06:56:36.138Z,89.51
2017-12-31T06:59:06.868Z,89.81
2017-12-31T07:01:37.615Z,90.27
2017-12-31T07:04:08.379Z,90.42
2017-12-31T07:06:39.142Z,90.51
2017-12-31T07:09:09.905Z,91.31
2017-12-31T07:11:40.669Z,91.35
2017-12-31T07:14:11.465Z,91.44
2017-12-31T07:16:42.216Z,91.62
2017-12-31T07:19:13.076Z,91.95
2017-12-31T07:21:43.840Z,91.85
2017-12-31T07:24:14.617Z,91.81
2017-12-31T07:26:45.376Z,91.70
2017-12-31T07:29:16.112Z,91.43
2017-12-31T07:31:46.924Z,91.39
2017-12-31T07:34:17.666Z,91.45
2017-12-31T07:36:48.447Z,91.23
2017-12-31T07:39:19.200Z,91.31
2017-12-31T07:41:49.996Z,91.21
2017-12-31T07:44:20.735Z,91.01
2017-12-31T07:46:51.505Z,90.61
2017-12-31T07:49:22.257Z,90.55
2017-12-31T07:51:53.032Z,90.21
2017-12-31T07:54:23.829Z,89.95
2017-12-31T07:56:54.596Z,90.31
2017-12-31T07:59:25.358Z,90.33
2017-12-31T08:01:56.139Z,89.69
2017-12-31T08:04:26.889Z,89.65
2017-12-31T08:06:57.656Z,89.56
2017-12-31T08:09:28.395Z,89.33
2017-12-31T08:11:59.181Z,89.44
2017-12-31T08:14:29.945Z,88.85
2017-12-31T08:17:00.724Z,88.85
2017-12-31T08:19:31.472Z,88.89
2017-12-31T08:22:02.248Z,88.79
2017-12-31T08:24:32.980Z,88.51
2017-12-31T08:27:03.736Z,88.42
2017-12-31T08:29:34.483Z,88.32
2017-12-31T08:32:07.477Z,88.13
2017-12-31T08:34:38.315Z,87.83
2017-12-31T08:37:09.072Z,86.32
2017-12-31T08:39:39.820Z,84.40
2017-12-31T08:42:10.584Z,84.37
2017-12-31T08:44:41.464Z,83.40
2017-12-31T08:47:12.372Z,83.59
2017-12-31T08:49:43.246Z,82.65
2017-12-31T08:52:17.792Z,82.50
2017-12-31T08:54:48.558Z,82.93
2017-12-31T08:57:19.312Z,83.08
2017-12-31T08:59:50.056Z,82.49
2017-12-31T09:02:20.840Z,80.75
2017-12-31T09:04:51.572Z,80.66
2017-12-31T09:07:22.394Z,80.42
2017-12-31T09:09:53.140Z,79.30
2017-12-31T09:12:23.900Z,78.80
2017-12-31T09:14:54.685Z,80.03
2017-12-31T09:17:25.428Z,79.08
2017-12-31T09:19:56.176Z,80.00
2017-12-31T09:22:26.915Z,78.34
2017-12-31T09:24:57.659Z,78.86
2017-12-31T09:27:28.397Z,76.02
2017-12-31T09:29:59.161Z,77.89
2017-12-31T09:32:29.954Z,76.48
2017-12-31T09:35:00.672Z,76.78
2017-12-31T09:37:31.416Z,77.51
2017-12-31T09:40:02.192Z,76.13
2017-12-31T09:42:32.950Z,75.82
2017-12-31T09:45:03.722Z,74.66
2017-12-31T09:47:34.473Z,73.71
2017-12-31T09:50:05.240Z,71.88
2017-12-31T09:52:35.991Z,71.74
2017-12-31T09:55:06.751Z,71.09
2017-12-31T09:57:37.509Z,73.53
2017-12-31T10:00:08.289Z,74.14
2017-12-31T10:02:39.046Z,73.41
2017-12-31T10:05:09.808Z,73.72
2017-12-31T10:07:40.628Z,72.88
2017-12-31T10:10:11.417Z,72.97
2017-12-31T10:12:42.232Z,72.55
2017-12-31T10:15:12.988Z,71.91
2017-12-31T10:17:43.748Z,71.36
2017-12-31T10:20:14.508Z,73.51
2017-12-31T10:22:45.261Z,75.18
2017-12-31T10:25:16.052Z,75.00
2017-12-31T10:27:46.814Z,74.88
2017-12-31T10:30:17.588Z,74.91
2017-12-31T10:32:48.331Z,73.98
2017-12-31T10:35:19.128Z,74.80
2017-12-31T10:37:56.881Z,73.52
2017-12-31T10:40:27.668Z,72.15
2017-12-31T10:42:58.425Z,72.60
2017-12-31T10:45:29.180Z,70.82
2017-12-31T10:47:59.939Z,71.12
2017-12-31T10:50:30.688Z,69.72
2017-12-31T10:53:01.450Z,67.93
2017-12-31T10:55:32.207Z,69.52
2017-12-31T10:58:02.956Z,68.42
2017-12-31T11:00:35.595Z,69.61
2017-12-31T11:03:06.336Z,69.56
2017-12-31T11:05:37.092Z,69.41
2017-12-31T11:08:07.853Z,68.82
2017-12-31T11:10:38.657Z,69.13
2017-12-31T11:13:09.445Z,69.30
2017-12-31T11:15:40.220Z,68.51
2017-12-31T11:18:10.964Z,68.67
2017-12-31T11:20:41.733Z,67.13
2017-12-31T11:23:12.488Z,67.20
2017-12-31T11:25:43.259Z,68.99
2017-12-31T11:28:14.021Z,67.84
2017-12-31T11:30:44.792Z,66.35
2017-12-31T11:33:15.545Z,67.23
2017-12-31T11:35:46.320Z,67.48
2017-12-31T11:38:17.069Z,65.54
2017-12-31T11:40:47.908Z,64.50
2017-12-31T11:43:18.628Z,63.30
2017-12-31T11:45:49.445Z,64.21
2017-12-31T11:48:20.201Z,62.08
2017-12-31T11:50:50.986Z,62.67
2017-12-31T11:53:21.753Z,63.20
2017-12-31T11:55:52.529Z,63.29
2017-12-31T11:58:23.284Z,63.46
2017-12-31T12:00:54.071Z,63.46
2017-12-31T12:03:24.852Z,63.12
2017-12-31T12:05:55.617Z,62.13
2017-12-31T12:08:26.377Z,63.77
2017-12-31T12:10:57.149Z,63.70
2017-12-31T12:13:27.920Z,62.36
2017-12-31T12:15:58.696Z,64.56
2017-12-31T12:18:29.452Z,64.51
2017-12-31T12:21:00.248Z,63.83
2017-12-31T12:23:31.075Z,61.92
2017-12-31T12:26:01.853Z,64.04
2017-12-31T12:28:32.629Z,63.11
2017-12-31T12:31:03.452Z,62.73
2017-12-31T12:33:34.237Z,62.86
2017-12-31T12:36:05.005Z,63.06
2017-12-31T12:38:35.802Z,64.56
2017-12-31T12:41:06.560Z,64.33
2017-12-31T12:43:37.324Z,65.19
2017-12-31T12:46:08.129Z,63.91
2017-12-31T12:48:38.867Z,64.30
2017-12-31T12:51:09.669Z,64.32
2017-12-31T12:53:40.428Z,62.54
2017-12-31T12:56:11.384Z,64.58
2017-12-31T12:58:42.136Z,64.21
2017-12-31T13:01:12.972Z,65.37
2017-12-31T13:03:43.782Z,64.55
2017-12-31T13:06:14.537Z,64.73
2017-12-31T13:08:45.286Z,64.35
2017-12-31T13:11:16.073Z,65.24
2017-12-31T13:13:46.863Z,64.69
2017-12-31T13:16:17.620Z,63.46
2017-12-31T13:18:48.451Z,64.72
2017-12-31T13:21:19.420Z,65.16
2017-12-31T13:23:50.184Z,63.57
2017-12-31T13:26:20.985Z,65.00
2017-12-31T13:28:51.729Z,65.99
2017-12-31T13:31:22.540Z,65.44
2017-12-31T13:33:53.313Z,64.85
2017-12-31T13:36:24.118Z,66.33
2017-12-31T13:38:54.924Z,65.14
2017-12-31T13:41:25.730Z,66.16
2017-12-31T13:43:56.467Z,65.85
2017-12-31T13:46:27.234Z,67.20
2017-12-31T13:48:57.992Z,66.19
2017-12-31T13:51:28.849Z,65.94
2017-12-31T13:53:59.616Z,66.91
2017-12-31T13:56:30.380Z,66.60
2017-12-31T13:59:01.156Z,67.64
2017-12-31T14:01:31.968Z,65.91
2017-12-31T14:04:02.750Z,67.10
2017-12-31T14:06:33.552Z,68.27
2017-12-31T14:09:04.335Z,68.36
2017-12-31T14:11:35.161Z,67.42
2017-12-31T14:14:05.907Z,67.47
2017-12-31T14:16:36.705Z,68.21
2017-12-31T14:19:07.473Z,66.73
2017-12-31T14:21:38.248Z,68.74
2017-12-31T14:24:09.000Z,67.21
2017-12-31T14:26:39.764Z,68.62
2017-12-31T14:29:10.524Z,68.10
2017-12-31T14:31:41.308Z,67.53
2017-12-31T14:34:12.101Z,69.12
2017-12-31T14:36:42.868Z,69.14
2017-12-31T14:39:13.629Z,70.77
2017-12-31T14:41:44.501Z,70.93
2017-12-31T14:44:15.280Z,71.06
2017-12-31T14:46:46.083Z,69.25
2017-12-31T14:49:16.881Z,71.26
2017-12-31T14:51:47.655Z,70.71
2017-12-31T14:54:18.425Z,70.40
2017-12-31T14:56:49.196Z,71.58
2017-12-31T14:59:19.964Z,71.97
2017-12-31T15:01:50.733Z,71.99
2017-12-31T15:04:21.525Z,73.04
2017-12-31T15:06:52.308Z,73.04
2017-12-31T15:09:23.060Z,73.32
2017-12-31T15:11:53.830Z,74.25
2017-12-31T15:14:24.628Z,73.43
2017-12-31T15:16:55.451Z,73.06
2017-12-31T15:19:26.199Z,73.17
2017-12-31T15:21:57.036Z,72.48
2017-12-31T15:24:27.867Z,72.65
2017-12-31T15:26:58.632Z,71.94
2017-12-31T15:29:29.372Z,73.12
2017-12-31T15:32:00.190Z,71.88
2017-12-31T15:34:30.952Z,73.00
2017-12-31T15:37:01.741Z,73.92
2017-12-31T15:39:32.578Z,74.24
2017-12-31T15:42:03.483Z,74.23
2017-12-31T15:44:34.298Z,74.68
2017-12-31T15:47:05.125Z,74.95
2017-12-31T15:49:35.895Z,75.11
2017-12-31T15:52:06.696Z,75.44
2017-12-31T15:54:37.500Z,76.02
2017-12-31T15:57:08.263Z,76.69
2017-12-31T15:59:39.025Z,76.79
2017-12-31T16:02:09.801Z,76.80
2017-12-31T16:04:40.603Z,75.80
2017-12-31T16:07:11.360Z,75.56
2017-12-31T16:09:42.155Z,75.50
2017-12-31T16:12:12.971Z,75.72
2017-12-31T16:14:43.785Z,74.62
2017-12-31T16:17:14.638Z,75.80
2017-12-31T16:19:45.397Z,76.68
2017-12-31T16:22:16.215Z,77.08
2017-12-31T16:24:47.152Z,78.26
2017-12-31T16:27:17.966Z,79.31
2017-12-31T16:29:48.741Z,79.99
2017-12-31T16:32:19.542Z,80.69
2017-12-31T16:34:50.309Z,82.27
2017-12-31T16:37:21.081Z,82.63
2017-12-31T16:39:52.052Z,83.74
2017-12-31T16:42:22.839Z,84.35
2017-12-31T16:44:53.592Z,84.74
2017-12-31T16:47:24.372Z,85.45
2017-12-31T16:49:55.121Z,85.50
2017-12-31T16:52:25.898Z,85.79
2017-12-31T16:54:56.981Z,86.38
2017-12-31T16:57:27.784Z,86.75
2017-12-31T16:59:58.614Z,87.33
2017-12-31T17:02:29.383Z,87.69
2017-12-31T17:05:00.169Z,87.76
2017-12-31T17:07:30.984Z,88.02
2017-12-31T17:10:01.741Z,88.45
2017-12-31T17:12:32.538Z,88.05
2017-12-31T17:15:03.331Z,88.29
2017-12-31T17:17:34.125Z,88.28
2017-12-31T17:20:04.980Z,88.70
2017-12-31T17:22:35.788Z,89.48
2017-12-31T17:25:06.557Z,90.09
2017-12-31T17:27:37.386Z,90.21
2017-12-31T17:30:08.142Z,90.56
2017-12-31T17:32:38.905Z,90.79
2017-12-31T17:35:09.662Z,90.96
2017-12-31T17:37:40.460Z,91.01
2017-12-31T17:40:11.229Z,90.79
2017-12-31T17:42:41.997Z,91.37
2017-12-31T17:45:12.751Z,91.43
2017-12-31T17:47:43.520Z,91.75
2017-12-31T17:50:14.277Z,91.78
2017-12-31T17:52:45.040Z,91.54
2017-12-31T17:55:16.018Z,91.81
2017-12-31T17:57:46.832Z,92.04
2017-12-31T18:00:17.593Z,92.07
2017-12-31T18:02:48.376Z,92.26
2017-12-31T18:05:19.120Z,92.43
2017-12-31T18:07:49.892Z,92.54
2017-12-31T18:10:20.674Z,92.81
2017-12-31T18:12:51.545Z,92.42
2017-12-31T18:15:22.293Z,92.59
2017-12-31T18:17:53.080Z,92.68
2017-12-31T18:20:23.862Z,92.85
2017-12-31T18:22:54.676Z,92.87
2017-12-31T18:25:25.434Z,93.07
2017-12-31T18:27:56.315Z,93.08
2017-12-31T18:30:27.116Z,93.28
2017-12-31T18:32:57.997Z,92.98
2017-12-31T18:35:28.817Z,92.57
2017-12-31T18:37:59.691Z,92.74
2017-12-31T18:40:30.455Z,92.96
2017-12-31T18:43:01.220Z,93.10
2017-12-31T18:45:32.115Z,93.14
2017-12-31T18:48:02.922Z,93.35
2017-12-31T18:50:33.712Z,93.36
2017-12-31T18:53:04.467Z,93.23
2017-12-31T18:55:35.262Z,93.33
2017-12-31T18:58:06.062Z,93.38
2017-12-31T19:00:37.083Z,93.76
2017-12-31T19:03:07.884Z,93.78
2017-12-31T19:05:38.696Z,93.60
2017-12-31T19:08:09.451Z,93.73
2017-12-31T19:10:40.245Z,93.71
2017-12-31T19:13:11.023Z,93.87
2017-12-31T19:15:41.772Z,93.89
2017-12-31T19:18:12.536Z,94.09
2017-12-31T19:20:43.326Z,93.93
2017-12-31T19:23:14.076Z,93.84
2017-12-31T19:25:44.841Z,94.04
2017-12-31T19:28:15.603Z,94.38
2017-12-31T19:30:46.368Z,94.40
2017-12-31T19:33:17.175Z,94.67
2017-12-31T19:35:47.957Z,94.83
2017-12-31T19:38:18.767Z,95.06
2017-12-31T19:40:49.603Z,95.15
2017-12-31T19:43:20.436Z,95.33
2017-12-31T19:45:51.236Z,95.37
2017-12-31T19:48:21.983Z,95.57
2017-12-31T19:50:53.902Z,95.57
2017-12-31T19:53:24.720Z,95.60
2017-12-31T19:55:55.472Z,95.62
2017-12-31T19:58:26.232Z,95.67
2017-12-31T20:00:57.018Z,95.80
2017-12-31T20:03:27.767Z,95.79
2017-12-31T20:05:58.511Z,95.70
2017-12-31T20:08:29.399Z,95.69
2017-12-31T20:11:00.180Z,95.74
2017-12-31T20:13:31.013Z,95.79
2017-12-31T20:16:01.850Z,95.75
2017-12-31T20:18:32.758Z,95.83
2017-12-31T20:21:03.499Z,96.05
2017-12-31T20:23:35.364Z,96.11
2017-12-31T20:26:06.163Z,96.01
2017-12-31T20:28:36.976Z,95.97
2017-12-31T20:31:07.766Z,96.10
2017-12-31T20:33:38.540Z,96.06
2017-12-31T20:36:09.283Z,96.23
2017-12-31T20:38:40.097Z,96.36
2017-12-31T20:41:11.051Z,96.37
2017-12-31T20:43:41.895Z,96.38
2017-12-31T20:46:12.772Z,96.61
2017-12-31T20:48:43.616Z,96.61
2017-12-31T20:51:14.396Z,96.63
2017-12-31T20:53:45.191Z,96.76
2017-12-31T20:56:15.976Z,96.66
2017-12-31T20:58:46.736Z,96.80
2017-12-31T21:01:19.396Z,96.69
2017-12-31T21:03:50.725Z,96.78
2017-12-31T21:06:21.591Z,96.94
2017-12-31T21:08:52.404Z,96.99
2017-12-31T21:11:23.212Z,97.17
2017-12-31T21:13:54.124Z,97.12
2017-12-31T21:16:24.931Z,97.12
2017-12-31T21:18:55.776Z,97.19
2017-12-31T21:21:26.662Z,97.10
2017-12-31T21:23:57.420Z,97.06
2017-12-31T21:26:30.191Z,97.17
2017-12-31T21:29:01.113Z,97.18
2017-12-31T21:31:31.917Z,97.06
2017-12-31T21:34:02.679Z,97.28
2017-12-31T21:36:33.456Z,97.25
2017-12-31T21:39:04.209Z,97.21
2017-12-31T21:41:35.006Z,97.24
2017-12-31T21:44:05.812Z,97.17
2017-12-31T21:46:36.639Z,97.31
2017-12-31T21:49:07.486Z,97.31
2017-12-31T21:51:38.251Z,97.35
2017-12-31T21:54:10.104Z,97.53
2017-12-31T21:56:40.924Z,97.54
2017-12-31T21:59:11.696Z,97.62
2017-12-31T22:01:42.474Z,97.61
2017-12-31T22:04:13.265Z,97.73
2017-12-31T22:06:44.004Z,97.71
2017-12-31T22:09:15.847Z,97.75
2017-12-31T22:11:46.639Z,97.74
2017-12-31T22:14:17.408Z,97.82
2017-12-31T22:16:48.155Z,97.73
2017-12-31T22:19:18.955Z,97.76
2017-12-31T22:21:49.737Z,97.92
2017-12-31T22:24:20.551Z,97.94
2017-12-31T22:26:51.378Z,97.91
2017-12-31T22:29:22.160Z,97.91
2017-12-31T22:31:52.967Z,97.79
2017-12-31T22:34:23.858Z,97.76
2017-12-31T22:36:54.625Z,97.70
2017-12-31T22:39:25.431Z,97.66
2017-12-31T22:41:56.225Z,97.78
2017-12-31T22:44:26.992Z,97.62
2017-12-31T22:46:57.782Z,97.57
2017-12-31T22:49:28.619Z,97.50
2017-12-31T22:51:59.416Z,97.63
2017-12-31T22:54:30.223Z,97.68
2017-12-31T22:57:00.968Z,97.70
2017-12-31T22:59:31.758Z,97.74
2017-12-31T23:02:02.513Z,97.64
2017-12-31T23:04:33.381Z,97.82
2017-12-31T23:07:05.214Z,97.85
2017-12-31T23:09:35.976Z,97.80
2017-12-31T23:12:06.821Z,97.85
2017-12-31T23:14:37.646Z,97.87
2017-12-31T23:17:08.405Z,97.89
2017-12-31T23:19:39.229Z,97.91
2017-12-31T23:22:10.052Z,97.88
2017-12-31T23:24:40.867Z,97.94
2017-12-31T23:27:11.616Z,97.97
2017-12-31T23:29:42.427Z,98.01
2017-12-31T23:32:13.235Z,97.94
2017-12-31T23:34:43.994Z,97.96
2017-12-31T23:37:14.746Z,97.92
2017-12-31T23:39:45.514Z,97.96
2017-12-31T23:42:16.267Z,97.87
2017-12-31T23:44:47.062Z,98.03
2017-12-31T23:47:20.568Z,97.90
2017-12-31T23:49:54.433Z,98.01
2017-12-31T23:52:25.382Z,98.11
2017-12-31T23:54:56.173Z,98.10
2017-12-31T23:57:27.023Z,98.06
2017-12-31T23:59:57.977Z,98.06
